Time;durP1;ratioP1;P1;durP2;ratioP2;P2;SDS_P1;SDS_P2;PMS_P1;PMS_P2;Temp;Humidity;BMP_temperature;BMP_pressure;BME280_temperature;BME280_humidity;BME280_pressure;Samples;Min_cycle;Max_cycle;Signal;HPM_P1;HPM_P2
2023/10/11 00:02:52;;;;;;;25.55;16.10;;;22.30;93.80;;;;;;6217036;23;20327;-75
2023/10/11 00:05:19;;;;;;;25.65;16.52;;;22.20;93.80;;;;;;6215526;23;20051;-75
2023/10/11 00:07:45;;;;;;;26.35;16.00;;;22.20;93.70;;;;;;6189344;23;19997;-77
2023/10/11 00:10:11;;;;;;;21.38;16.00;;;22.20;93.70;;;;;;6215771;23;20445;-78
2023/10/11 00:12:41;;;;;;;24.63;15.80;;;22.20;93.50;;;;;;6215777;23;20426;-78
2023/10/11 00:15:10;;;;;;;;;;;22.20;93.40;;;;;;6216278;23;20347;-79
2023/10/11 00:17:36;;;;;;;22.33;14.57;;;22.10;93.40;;;;;;6189408;23;19906;-78
2023/10/11 00:20:19;;;;;;;24.95;16.42;;;22.10;93.40;;;;;;6189094;23;20088;-77
2023/10/11 00:22:45;;;;;;;26.55;14.98;;;22.10;93.30;;;;;;6214642;23;20008;-77
2023/10/11 00:25:23;;;;;;;24.75;15.82;;;22.10;93.20;;;;;;6213446;23;20435;-77
2023/10/11 00:27:51;;;;;;;28.38;16.30;;;22.10;93.30;;;;;;6215107;23;20047;-82
2023/10/11 00:30:17;;;;;;;22.00;14.20;;;22.10;93.10;;;;;;6214862;23;20407;-84
2023/10/11 00:32:47;;;;;;;21.58;14.40;;;22.00;93.10;;;;;;6215669;23;20033;-78
2023/10/11 00:35:18;;;;;;;21.90;13.98;;;22.00;93.10;;;;;;6215241;23;20008;-85
2023/10/11 00:37:51;;;;;;;19.58;13.05;;;22.00;93.20;;;;;;6215742;23;20004;-85
2023/10/11 00:40:32;;;;;;;21.20;14.75;;;21.90;93.20;;;;;;6215941;23;20004;-79
2023/10/11 00:42:58;;;;;;;22.90;14.30;;;22.00;93.20;;;;;;6215327;23;20451;-78
2023/10/11 00:45:26;;;;;;;16.83;12.52;;;22.00;93.20;;;;;;6215214;23;20000;-78
2023/10/11 00:47:55;;;;;;;22.48;13.85;;;22.00;93.10;;;;;;6189169;23;20430;-78
2023/10/11 00:50:21;;;;;;;21.80;12.95;;;22.00;93.00;;;;;;6190787;23;20005;-85
2023/10/11 00:52:48;;;;;;;29.80;13.65;;;22.00;93.00;;;;;;6214750;23;20438;-77
2023/10/11 00:55:18;;;;;;;20.92;12.07;;;22.00;92.90;;;;;;6215734;23;20004;-76
2023/10/11 00:57:48;;;;;;;19.17;12.27;;;22.00;92.90;;;;;;6215610;23;19997;-76
2023/10/11 01:00:21;;;;;;;21.50;11.98;;;22.00;92.90;;;;;;6214711;23;19996;-76
2023/10/11 01:02:48;;;;;;;23.48;12.52;;;22.00;92.90;;;;;;6215337;23;20039;-77
2023/10/11 01:05:14;;;;;;;17.02;12.30;;;22.00;92.80;;;;;;6214727;23;20027;-77
2023/10/11 01:07:40;;;;;;;18.15;12.70;;;22.00;92.80;;;;;;6215813;23;19996;-77
2023/10/11 01:10:07;;;;;;;19.48;12.25;;;22.00;92.80;;;;;;6215443;23;20008;-77
2023/10/11 01:12:34;;;;;;;17.67;10.82;;;22.00;92.80;;;;;;6214643;23;20001;-78
2023/10/11 01:15:00;;;;;;;18.33;10.75;;;22.00;92.80;;;;;;6214875;23;20095;-78
2023/10/11 01:17:26;;;;;;;16.55;11.13;;;22.00;92.70;;;;;;6215663;23;20004;-78
2023/10/11 01:19:53;;;;;;;16.02;10.50;;;22.00;92.70;;;;;;6215327;23;20477;-78
2023/10/11 01:22:19;;;;;;;16.88;11.60;;;22.00;92.70;;;;;;6215588;23;20028;-79
2023/10/11 01:24:47;;;;;;;18.77;11.90;;;22.00;92.60;;;;;;6214881;23;19997;-79
2023/10/11 01:27:14;;;;;;;17.02;11.45;;;22.00;92.60;;;;;;6214390;23;20391;-79
2023/10/11 01:29:40;;;;;;;20.58;10.68;;;22.00;92.60;;;;;;6214958;23;20000;-79
2023/10/11 01:32:06;;;;;;;17.30;11.15;;;22.00;92.60;;;;;;6189294;23;20063;-79
2023/10/11 01:34:32;;;;;;;17.85;10.38;;;21.90;92.50;;;;;;6215187;23;20098;-79
2023/10/11 01:36:59;;;;;;;18.65;10.55;;;21.90;92.60;;;;;;6215213;23;20466;-79
2023/10/11 01:39:25;;;;;;;14.35;9.60;;;21.90;92.60;;;;;;6188060;23;20008;-78
2023/10/11 01:41:54;;;;;;;14.40;9.68;;;21.80;92.50;;;;;;6214811;23;20091;-78
2023/10/11 01:44:23;;;;;;;20.80;10.32;;;21.90;92.50;;;;;;6188687;23;20434;-79
2023/10/11 01:46:49;;;;;;;18.98;10.27;;;21.80;92.40;;;;;;6215173;23;20005;-78
2023/10/11 01:49:14;;;;;;;14.13;10.18;;;21.80;92.40;;;;;;6187866;23;20139;-79
2023/10/11 01:51:52;;;;;;;16.40;9.63;;;21.80;92.40;;;;;;6215098;23;20093;-78
2023/10/11 01:54:22;;;;;;;14.05;9.43;;;21.80;92.40;;;;;;6214708;23;20016;-78
2023/10/11 01:56:49;;;;;;;15.88;9.40;;;21.80;92.40;;;;;;6215379;23;20015;-78
2023/10/11 01:59:18;;;;;;;19.13;9.27;;;21.80;92.30;;;;;;6187666;23;20130;-78
2023/10/11 02:01:54;;;;;;;15.00;8.77;;;21.80;92.30;;;;;;6214399;23;20004;-78
2023/10/11 02:04:20;;;;;;;16.98;8.52;;;21.80;92.20;;;;;;6214438;23;20005;-79
2023/10/11 02:06:52;;;;;;;14.93;9.10;;;21.70;92.10;;;;;;6214740;23;20488;-79
2023/10/11 02:09:22;;;;;;;15.23;8.80;;;21.70;92.00;;;;;;6214384;23;20001;-79
2023/10/11 02:11:52;;;;;;;;;;;21.70;92.00;;;;;;6215250;23;20080;-79
2023/10/11 02:14:23;;;;;;;16.60;8.07;;;21.70;91.80;;;;;;6214800;23;19900;-78
2023/10/11 02:16:49;;;;;;;13.00;7.80;;;21.70;91.80;;;;;;6214994;23;20051;-77
2023/10/11 02:19:18;;;;;;;13.38;7.63;;;21.70;91.70;;;;;;6213927;23;20005;-77
2023/10/11 02:21:44;;;;;;;11.63;7.20;;;21.70;91.60;;;;;;6213881;23;20415;-78
2023/10/11 02:24:14;;;;;;;15.93;7.82;;;21.70;91.60;;;;;;6187458;23;20005;-78
2023/10/11 02:26:41;;;;;;;15.98;8.00;;;21.70;91.60;;;;;;6214653;23;20029;-77
2023/10/11 02:29:15;;;;;;;10.18;7.10;;;21.70;91.50;;;;;;6214706;23;20000;-77
2023/10/11 02:31:40;;;;;;;12.73;6.78;;;21.70;91.40;;;;;;6213464;23;20059;-77
2023/10/11 02:34:15;;;;;;;12.07;7.35;;;21.60;91.40;;;;;;6215089;23;20028;-77
2023/10/11 02:36:45;;;;;;;14.60;7.22;;;21.60;91.40;;;;;;6214692;23;20005;-77
2023/10/11 02:39:18;;;;;;;16.35;7.22;;;21.50;91.30;;;;;;6215223;23;20447;-78
2023/10/11 02:41:55;;;;;;;16.05;6.90;;;21.50;91.30;;;;;;6214501;23;20000;-78
2023/10/11 02:44:22;;;;;;;14.25;6.65;;;21.50;91.40;;;;;;6214599;23;20001;-78
2023/10/11 02:46:49;;;;;;;11.48;6.95;;;21.50;91.40;;;;;;6188037;23;20001;-78
2023/10/11 02:49:20;;;;;;;12.77;6.40;;;21.50;91.40;;;;;;6215172;23;20007;-78
2023/10/11 02:51:55;;;;;;;14.25;6.97;;;21.50;91.40;;;;;;6217766;23;20005;-78
2023/10/11 02:54:21;;;;;;;11.27;6.78;;;21.50;91.40;;;;;;6191346;23;20509;-78
2023/10/11 02:56:47;;;;;;;9.63;6.65;;;21.50;91.40;;;;;;6217356;23;20004;-78
2023/10/11 02:59:22;;;;;;;12.30;6.65;;;21.40;91.40;;;;;;6191798;23;20088;-78
2023/10/11 03:01:59;;;;;;;12.27;6.25;;;21.40;91.30;;;;;;6218135;23;20079;-80
2023/10/11 03:04:28;;;;;;;15.57;7.03;;;21.40;91.30;;;;;;6218583;23;20009;-79
2023/10/11 03:06:54;;;;;;;10.88;6.93;;;21.40;91.30;;;;;;6217886;23;20028;-79
2023/10/11 03:09:19;;;;;;;12.02;6.60;;;21.40;91.30;;;;;;6190946;23;20009;-78
2023/10/11 03:11:45;;;;;;;15.93;6.53;;;21.40;91.30;;;;;;6218041;23;20004;-78
2023/10/11 03:14:14;;;;;;;11.15;6.35;;;21.30;91.30;;;;;;6217811;23;20007;-78
2023/10/11 03:16:43;;;;;;;13.70;6.47;;;21.30;91.30;;;;;;6191086;23;20441;-78
2023/10/11 03:19:11;;;;;;;10.70;6.90;;;21.30;91.30;;;;;;6190382;23;20001;-78
2023/10/11 03:21:37;;;;;;;13.55;6.55;;;21.30;91.30;;;;;;6216695;23;20033;-77
2023/10/11 03:24:05;;;;;;;11.13;6.45;;;21.30;91.30;;;;;;6217445;23;20647;-79
2023/10/11 03:29:04;;;;;;;11.63;6.38;;;21.30;91.30;;;;;;6217928;23;20063;-77
2023/10/11 03:31:32;;;;;;;16.70;7.75;;;21.30;91.30;;;;;;6216605;23;20057;-77
2023/10/11 03:34:01;;;;;;;12.00;6.03;;;21.30;91.30;;;;;;6217299;23;20001;-77
2023/10/11 03:36:34;;;;;;;15.23;6.45;;;21.30;91.20;;;;;;6216853;23;20011;-76
2023/10/11 03:39:09;;;;;;;12.93;7.50;;;21.30;91.20;;;;;;6217416;23;20071;-76
2023/10/11 03:41:45;;;;;;;11.02;7.05;;;21.30;91.20;;;;;;6217143;23;20028;-76
2023/10/11 03:44:17;;;;;;;11.30;6.00;;;21.30;91.20;;;;;;6190860;23;20008;-76
2023/10/11 03:46:47;;;;;;;11.63;6.43;;;21.30;91.20;;;;;;6218024;23;20399;-75
2023/10/11 03:49:58;;;;;;;13.63;6.65;;;21.30;91.10;;;;;;6217789;23;20001;-76
2023/10/11 03:51:59;;;;;;;9.88;5.88;;;21.20;91.10;;;;;;6201327;23;20020;-76
2023/10/11 03:54:25;;;;;;;15.73;6.72;;;21.20;91.20;;;;;;6191739;23;20035;-76
2023/10/11 03:56:55;;;;;;;12.55;6.22;;;21.20;91.20;;;;;;6217110;23;20001;-76
2023/10/11 03:59:21;;;;;;;;;;;21.10;91.20;;;;;;6218201;23;20008;-76
2023/10/11 04:01:49;;;;;;;10.90;6.10;;;21.10;91.30;;;;;;6215999;23;19950;-76
2023/10/11 04:04:16;;;;;;;17.63;8.30;;;21.10;91.30;;;;;;6216310;23;20001;-76
2023/10/11 04:06:42;;;;;;;14.23;8.00;;;21.10;91.40;;;;;;6216129;23;19997;-76
2023/10/11 04:09:22;;;;;;;15.50;7.90;;;21.00;91.50;;;;;;6216179;23;20000;-76
2023/10/11 04:11:55;;;;;;;15.02;7.80;;;21.00;91.50;;;;;;6215802;23;20001;-76
2023/10/11 04:14:39;;;;;;;11.10;7.65;;;21.00;91.60;;;;;;6189551;23;20015;-76
2023/10/11 04:17:14;;;;;;;17.70;9.75;;;21.00;91.60;;;;;;6215474;23;20071;-76
2023/10/11 04:19:43;;;;;;;20.52;8.57;;;20.90;91.60;;;;;;6215444;23;20426;-77
2023/10/11 04:25:10;;;;;;;14.70;8.63;;;21.00;91.80;;;;;;6191616;23;20004;-77
2023/10/11 04:27:55;;;;;;;16.70;8.77;;;20.90;91.80;;;;;;6216286;23;20027;-84
2023/10/11 04:30:26;;;;;;;16.42;9.25;;;20.90;91.80;;;;;;6188859;23;20016;-83
2023/10/11 04:32:56;;;;;;;15.10;8.65;;;20.90;91.90;;;;;;6215472;23;20001;-85
2023/10/11 04:35:42;;;;;;;19.25;8.32;;;20.90;91.90;;;;;;6214000;23;20008;-83
2023/10/11 04:38:11;;;;;;;15.93;8.80;;;20.90;92.00;;;;;;6215937;23;20000;-84
2023/10/11 04:40:51;;;;;;;13.93;8.15;;;20.80;92.00;;;;;;6214417;23;20001;-83
2023/10/11 04:43:20;;;;;;;13.20;7.63;;;20.80;92.20;;;;;;6187917;23;20009;-84
2023/10/11 04:45:48;;;;;;;15.10;9.18;;;20.70;92.20;;;;;;6214897;23;19996;-82
2023/10/11 04:48:15;;;;;;;15.70;8.68;;;20.70;92.30;;;;;;6214518;23;20011;-82
2023/10/11 04:50:45;;;;;;;13.10;8.15;;;20.70;92.40;;;;;;6215961;23;20000;-82
2023/10/11 04:53:18;;;;;;;13.77;9.32;;;20.60;92.40;;;;;;6213739;23;20009;-83
2023/10/11 04:55:59;;;;;;;19.58;8.25;;;20.60;92.50;;;;;;6213088;23;20015;-84
2023/10/11 05:01:08;;;;;;;17.05;9.90;;;20.50;92.60;;;;;;6218831;23;20423;-86
2023/10/11 05:03:37;;;;;;;20.55;9.82;;;20.50;92.70;;;;;;6214333;23;20012;-87
2023/10/11 05:06:19;;;;;;;18.25;10.45;;;20.50;92.80;;;;;;6212662;23;20090;-87
2023/10/11 05:08:51;;;;;;;19.55;10.73;;;20.40;93.00;;;;;;6215006;23;20067;-85
2023/10/11 05:11:39;;;;;;;17.88;10.82;;;20.40;92.90;;;;;;6213612;23;20004;-87
2023/10/11 05:16:49;;;;;;;18.98;11.52;;;20.50;93.10;;;;;;6214644;23;20015;-88
2023/10/11 05:19:20;;;;;;;18.63;10.65;;;20.40;93.00;;;;;;6186183;23;20423;-88
2023/10/11 05:22:03;;;;;;;16.90;11.57;;;20.50;93.10;;;;;;6215110;23;20550;-88
2023/10/11 05:27:26;;;;;;;21.00;11.43;;;20.50;93.00;;;;;;6215365;23;20001;-80
2023/10/11 05:32:48;;;;;;;19.17;12.55;;;20.50;93.10;;;;;;6216402;23;20419;-89
2023/10/11 05:51:28;;;;;;;21.48;14.02;;;20.60;93.20;;;;;;6215415;23;20457;-85
2023/10/11 05:53:55;;;;;;;22.50;12.95;;;20.60;93.30;;;;;;6215394;23;20005;-85
2023/10/11 05:56:21;;;;;;;21.85;14.85;;;20.60;93.30;;;;;;6215428;23;20024;-88
2023/10/11 05:58:52;;;;;;;23.52;14.18;;;20.60;93.30;;;;;;6215703;23;20021;-87
2023/10/11 06:01:22;;;;;;;23.50;15.18;;;20.50;93.30;;;;;;6215437;23;20450;-88
2023/10/11 06:03:51;;;;;;;20.77;14.30;;;20.50;93.40;;;;;;6215154;23;20008;-88
2023/10/11 06:06:24;;;;;;;27.60;15.83;;;20.50;93.50;;;;;;6189562;23;20004;-88
2023/10/11 06:08:54;;;;;;;26.83;16.73;;;20.50;93.50;;;;;;6216109;23;20001;-87
2023/10/11 06:11:20;;;;;;;21.75;15.55;;;20.50;93.60;;;;;;6215917;23;20012;-84
2023/10/11 06:13:47;;;;;;;21.02;14.15;;;20.50;93.60;;;;;;6215226;23;20015;-86
2023/10/11 06:16:16;;;;;;;23.85;13.50;;;20.50;93.60;;;;;;6215035;23;20011;-85
2023/10/11 06:18:55;;;;;;;20.40;13.30;;;20.50;93.70;;;;;;6188412;23;20004;-86
2023/10/11 06:21:31;;;;;;;26.75;14.70;;;20.50;93.70;;;;;;6216885;23;20004;-86
2023/10/11 06:23:58;;;;;;;25.35;14.52;;;20.50;93.70;;;;;;6193582;23;20009;-87
2023/10/11 06:29:08;;;;;;;24.80;13.90;;;20.60;93.70;;;;;;6218409;23;20032;-84
2023/10/11 06:31:43;;;;;;;19.75;13.55;;;20.60;93.70;;;;;;6220032;23;20024;-85
2023/10/11 06:34:17;;;;;;;25.80;13.45;;;20.60;93.70;;;;;;6228608;23;20004;-86
2023/10/11 06:42:31;;;;;;;19.40;12.55;;;20.70;93.60;;;;;;6217957;23;20012;-86
2023/10/11 06:44:59;;;;;;;21.65;12.55;;;20.70;93.60;;;;;;6217172;23;20055;-88
2023/10/11 06:47:35;;;;;;;26.00;14.23;;;20.80;93.60;;;;;;6218005;23;20311;-86
2023/10/11 06:50:12;;;;;;;21.13;12.73;;;20.80;93.70;;;;;;6217894;23;20433;-86
2023/10/11 06:52:46;;;;;;;20.10;13.27;;;20.80;93.60;;;;;;6216703;23;20000;-86
2023/10/11 06:57:56;;;;;;;24.85;11.90;;;21.00;93.50;;;;;;6218065;23;20380;-85
2023/10/11 07:00:25;;;;;;;21.98;12.93;;;21.00;93.50;;;;;;6215880;23;20330;-85
2023/10/11 07:02:53;;;;;;;18.13;11.70;;;21.10;93.50;;;;;;6188905;23;20009;-85
2023/10/11 07:05:20;;;;;;;23.67;11.68;;;21.10;93.40;;;;;;6216607;23;19997;-86
2023/10/11 07:07:51;;;;;;;16.75;10.82;;;21.20;93.30;;;;;;6215550;23;20008;-86
2023/10/11 07:10:33;;;;;;;19.20;11.05;;;21.30;93.20;;;;;;6217147;23;20004;-86
2023/10/11 07:13:03;;;;;;;28.13;11.20;;;21.30;93.20;;;;;;6217595;23;20008;-85
2023/10/11 07:15:44;;;;;;;19.83;11.82;;;21.40;93.20;;;;;;6216796;23;20012;-86
2023/10/11 07:18:22;;;;;;;22.45;12.00;;;21.50;93.20;;;;;;6216808;23;20454;-87
2023/10/11 07:20:47;;;;;;;17.80;12.27;;;21.60;93.10;;;;;;6217521;23;20008;-86
2023/10/11 07:23:20;;;;;;;20.05;10.88;;;21.70;93.00;;;;;;6215269;23;20300;-87
2023/10/11 07:25:59;;;;;;;18.80;11.45;;;21.70;92.80;;;;;;6215579;23;20000;-87
2023/10/11 07:28:37;;;;;;;17.90;11.57;;;21.80;92.80;;;;;;6216177;23;20539;-85
2023/10/11 07:31:04;;;;;;;17.85;10.18;;;21.80;92.80;;;;;;6215436;23;20072;-85
2023/10/11 07:33:31;;;;;;;19.25;10.85;;;21.90;92.60;;;;;;6215876;23;20051;-82
2023/10/11 07:36:01;;;;;;;15.30;9.93;;;22.00;92.50;;;;;;6188847;23;20011;-81
2023/10/11 07:38:34;;;;;;;18.27;10.45;;;22.10;92.40;;;;;;6217109;23;20008;-82
2023/10/11 07:41:05;;;;;;;14.43;10.00;;;22.10;92.40;;;;;;6217416;23;20431;-82
2023/10/11 07:43:32;;;;;;;16.65;9.45;;;22.20;92.50;;;;;;6217355;23;20024;-82
2023/10/11 07:46:01;;;;;;;24.60;10.23;;;22.30;92.20;;;;;;6217082;23;20025;-81
2023/10/11 07:48:31;;;;;;;25.58;11.20;;;22.40;92.10;;;;;;6217501;23;19996;-80
2023/10/11 07:51:06;;;;;;;18.17;10.35;;;22.50;92.00;;;;;;6217324;23;20001;-81
2023/10/11 07:53:33;;;;;;;16.25;9.63;;;22.60;91.90;;;;;;6217027;23;20492;-82
2023/10/11 07:55:59;;;;;;;17.38;9.10;;;22.60;91.40;;;;;;6216895;23;20028;-81
2023/10/11 07:58:32;;;;;;;14.38;7.75;;;22.70;91.50;;;;;;6216643;23;20319;-81
2023/10/11 08:01:15;;;;;;;15.73;7.72;;;22.80;91.40;;;;;;6216700;23;20051;-81
2023/10/11 08:03:44;;;;;;;15.98;6.63;;;22.90;90.90;;;;;;6216031;23;20400;-81
2023/10/11 08:06:14;;;;;;;16.10;5.47;;;23.00;90.40;;;;;;6190218;23;20004;-81
2023/10/11 08:08:43;;;;;;;9.75;5.45;;;23.10;90.10;;;;;;6217566;23;20000;-81
2023/10/11 08:11:23;;;;;;;12.27;4.97;;;23.20;89.90;;;;;;6201634;23;20001;-88
2023/10/11 08:13:50;;;;;;;8.73;4.70;;;23.40;89.70;;;;;;6205697;23;20004;-88
2023/10/11 08:16:20;;;;;;;9.68;4.57;;;23.50;89.30;;;;;;6229824;23;20007;-88
2023/10/11 08:19:17;;;;;;;8.15;4.97;;;23.60;87.60;;;;;;6230014;23;19997;-87
2023/10/11 08:22:09;;;;;;;10.25;4.45;;;23.60;87.70;;;;;;6232249;23;20086;-87
2023/10/11 08:24:46;;;;;;;14.02;4.95;;;23.70;87.20;;;;;;6228891;23;20004;-88
2023/10/11 08:27:13;;;;;;;8.65;3.85;;;23.80;86.20;;;;;;6202815;23;20024;-87
2023/10/11 08:29:42;;;;;;;8.05;4.32;;;23.90;85.80;;;;;;6198468;23;20040;-82
2023/10/11 08:32:15;;;;;;;13.18;5.72;;;24.00;85.60;;;;;;6224322;23;20001;-81
2023/10/11 08:34:54;;;;;;;13.07;4.25;;;24.10;85.40;;;;;;6200027;23;20011;-80
2023/10/11 08:38:03;;;;;;;10.85;4.57;;;24.30;85.20;;;;;;6199423;23;20019;-81
2023/10/11 08:40:40;;;;;;;7.50;4.07;;;24.40;84.50;;;;;;6053725;23;20033;-82
2023/10/11 08:43:10;;;;;;;7.72;4.25;;;24.40;84.30;;;;;;6221772;23;20028;-86
2023/10/11 08:46:00;;;;;;;13.95;4.72;;;24.60;84.20;;;;;;6209635;23;20004;-87
2023/10/11 08:48:49;;;;;;;11.40;4.68;;;24.70;83.70;;;;;;6207998;23;20028;-87
2023/10/11 08:51:25;;;;;;;10.25;4.78;;;24.80;83.40;;;;;;6206272;23;20011;-87
2023/10/11 08:54:27;;;;;;;10.65;4.70;;;24.90;83.30;;;;;;6204944;23;20019;-88
2023/10/11 08:57:34;;;;;;;12.23;4.28;;;25.00;82.80;;;;;;6202402;23;20015;-87
2023/10/11 09:00:52;;;;;;;10.02;4.47;;;25.10;82.00;;;;;;6202343;23;20001;-87
2023/10/11 09:03:41;;;;;;;8.57;4.68;;;25.20;82.10;;;;;;6185920;23;20188;-87
2023/10/11 09:06:23;;;;;;;10.18;4.60;;;25.40;81.30;;;;;;6204520;23;20007;-86
2023/10/11 09:09:00;;;;;;;9.65;4.20;;;25.40;80.60;;;;;;6229987;23;19997;-87
2023/10/11 09:11:33;;;;;;;14.45;4.72;;;25.50;81.10;;;;;;6203665;23;20000;-87
2023/10/11 09:14:28;;;;;;;7.82;4.28;;;25.60;81.20;;;;;;6206284;23;20001;-86
2023/10/11 09:17:49;;;;;;;17.08;4.82;;;25.70;81.00;;;;;;6207725;23;19991;-87
2023/10/11 09:20:40;;;;;;;7.68;4.30;;;25.90;80.70;;;;;;6181056;23;20416;-88
2023/10/11 09:23:21;;;;;;;13.38;4.85;;;26.00;80.30;;;;;;6203795;23;20019;-87
2023/10/11 09:26:09;;;;;;;9.55;4.38;;;26.20;80.20;;;;;;6219660;23;20008;-88
2023/10/11 09:28:44;;;;;;;9.80;4.07;;;26.30;80.10;;;;;;6233815;23;20423;-87
2023/10/11 09:31:23;;;;;;;11.07;4.57;;;26.40;80.10;;;;;;6234536;23;20334;-88
2023/10/11 09:34:26;;;;;;;7.75;4.20;;;26.50;78.70;;;;;;6232289;23;20442;-87
2023/10/11 09:37:00;;;;;;;15.20;4.35;;;26.70;78.80;;;;;;6200097;23;20027;-87
2023/10/11 09:40:25;;;;;;;6.60;4.20;;;26.80;78.50;;;;;;6211785;23;20008;-87
2023/10/11 09:43:04;;;;;;;9.55;4.13;;;26.90;78.20;;;;;;6232192;23;20027;-87
2023/10/11 09:45:43;;;;;;;7.35;4.50;;;27.00;77.80;;;;;;6234860;23;20000;-87
2023/10/11 09:48:23;;;;;;;9.75;4.45;;;27.10;77.60;;;;;;6233569;23;19996;-87
2023/10/11 09:52:05;;;;;;;10.55;5.18;;;27.20;78.10;;;;;;6235381;23;20067;-88
2023/10/11 09:54:15;;;;;;;11.70;4.90;;;27.30;76.70;;;;;;6247542;23;20012;-87
2023/10/11 09:57:24;;;;;;;14.95;5.13;;;27.40;76.40;;;;;;6235203;23;20034;-88
2023/10/11 10:00:03;;;;;;;11.38;5.10;;;27.40;76.10;;;;;;6232640;23;20004;-88
2023/10/11 10:02:44;;;;;;;10.60;5.22;;;27.60;76.10;;;;;;6232853;23;20012;-87
2023/10/11 10:06:18;;;;;;;12.25;5.28;;;27.80;76.40;;;;;;6232386;23;20008;-87
2023/10/11 10:12:20;;;;;;;12.00;5.07;;;27.90;75.20;;;;;;6263029;23;20042;-86
2023/10/11 10:15:41;;;;;;;7.65;4.55;;;27.90;75.20;;;;;;6236810;23;20080;-86
2023/10/11 10:19:07;;;;;;;12.40;6.00;;;28.00;74.90;;;;;;6230849;23;20054;-86
2023/10/11 10:22:27;;;;;;;12.73;5.70;;;28.20;73.30;;;;;;6221415;22;20025;-87
2023/10/11 10:25:19;;;;;;;10.82;5.30;;;28.10;73.40;;;;;;6199914;23;20449;-87
2023/10/11 10:27:52;;;;;;;10.55;5.38;;;28.20;74.00;;;;;;6195951;23;20000;-88
2023/10/11 10:33:35;;;;;;;12.10;5.65;;;28.30;73.60;;;;;;6233214;23;20019;-89
2023/10/11 10:36:43;;;;;;;10.38;5.45;;;28.40;73.80;;;;;;6228445;23;20004;-80
2023/10/11 10:42:16;;;;;;;9.75;5.13;;;28.80;74.20;;;;;;6220958;23;20042;-81
2023/10/11 10:45:21;;;;;;;12.77;5.72;;;29.00;73.30;;;;;;6191489;23;20005;-80
2023/10/11 10:47:50;;;;;;;10.15;5.72;;;29.20;72.50;;;;;;6181853;23;20055;-79
2023/10/11 10:50:21;;;;;;;11.35;5.88;;;29.20;72.40;;;;;;6191231;23;20024;-80
2023/10/11 10:52:57;;;;;;;13.07;6.22;;;29.20;69.80;;;;;;6192595;23;20403;-80
2023/10/11 10:56:20;;;;;;;9.73;6.03;;;29.20;71.70;;;;;;6193567;23;20005;-79
2023/10/11 10:58:35;;;;;;;8.90;5.93;;;29.20;72.00;;;;;;6202876;23;20008;-79
2023/10/11 11:01:53;;;;;;;10.77;5.60;;;29.40;70.30;;;;;;6190905;23;20055;-80
2023/10/11 11:04:07;;;;;;;11.43;6.35;;;29.50;71.20;;;;;;6196977;23;20012;-81
2023/10/11 11:06:55;;;;;;;9.38;4.93;;;29.60;71.10;;;;;;6192189;23;20032;-81
2023/10/11 11:09:26;;;;;;;9.75;5.35;;;29.70;70.80;;;;;;6193385;23;20348;-81
2023/10/11 11:11:58;;;;;;;12.20;6.18;;;29.90;71.30;;;;;;6193330;23;20091;-80
2023/10/11 11:15:13;;;;;;;13.98;6.32;;;30.20;70.90;;;;;;6194777;23;20005;-81
2023/10/11 11:17:47;;;;;;;11.45;5.50;;;30.40;69.70;;;;;;6194966;23;20465;-80
2023/10/11 11:20:42;;;;;;;15.50;6.70;;;30.60;68.60;;;;;;6195154;23;20028;-81
2023/10/11 11:28:00;;;;;;;13.82;6.88;;;30.90;68.10;;;;;;6202520;23;20093;-87
2023/10/11 11:38:41;;;;;;;;;;;31.40;66.50;;;;;;6157366;23;20080;-87
2023/10/11 11:45:45;;;;;;;11.48;6.07;;;31.70;65.70;;;;;;6204114;23;20019;-87
2023/10/11 11:55:16;;;;;;;16.77;6.15;;;32.30;64.30;;;;;;6192660;23;21149;-77
2023/10/11 11:57:43;;;;;;;8.98;5.70;;;32.40;64.70;;;;;;6203752;23;20453;-77
2023/10/11 12:02:58;;;;;;;18.77;6.30;;;32.50;64.10;;;;;;6217564;23;20020;-77
2023/10/11 12:05:27;;;;;;;15.90;6.88;;;32.60;63.50;;;;;;6214558;23;20001;-78
2023/10/11 12:07:57;;;;;;;12.07;5.88;;;32.70;64.20;;;;;;6215493;23;20020;-77
2023/10/11 12:10:24;;;;;;;16.55;6.13;;;32.80;64.40;;;;;;6215315;23;20419;-77
2023/10/11 12:12:53;;;;;;;20.70;6.47;;;32.80;63.70;;;;;;6189109;23;20312;-77
2023/10/11 12:15:19;;;;;;;15.70;7.22;;;32.90;63.40;;;;;;6215656;23;20008;-77
2023/10/11 12:17:47;;;;;;;17.85;5.85;;;33.00;63.50;;;;;;6216341;23;20001;-77
2023/10/11 12:20:15;;;;;;;17.08;7.03;;;33.10;63.30;;;;;;6215064;23;20005;-77
2023/10/11 12:22:44;;;;;;;14.60;6.30;;;33.10;62.60;;;;;;6214925;23;20023;-77
2023/10/11 12:25:11;;;;;;;11.13;5.87;;;33.10;62.90;;;;;;6215472;23;20007;-77
2023/10/11 12:27:40;;;;;;;11.35;6.63;;;33.20;63.30;;;;;;6216439;23;20274;-77
2023/10/11 12:30:16;;;;;;;12.70;6.57;;;33.20;62.80;;;;;;6215661;23;20080;-77
2023/10/11 12:32:42;;;;;;;15.48;6.65;;;33.20;62.90;;;;;;6166267;23;20012;-77
2023/10/11 12:35:07;;;;;;;10.77;6.10;;;33.20;62.90;;;;;;6215920;23;20005;-77
2023/10/11 12:37:34;;;;;;;12.95;6.85;;;33.20;62.70;;;;;;6216748;23;20331;-77
2023/10/11 12:40:00;;;;;;;14.60;6.30;;;33.20;62.40;;;;;;6188621;23;20016;-82
2023/10/11 12:42:26;;;;;;;18.83;7.70;;;33.20;62.60;;;;;;6189498;23;20012;-77
2023/10/11 12:44:53;;;;;;;14.35;7.47;;;33.10;62.30;;;;;;6216210;23;20001;-77
2023/10/11 12:47:19;;;;;;;15.65;7.07;;;33.00;62.60;;;;;;6216343;23;20051;-80
2023/10/11 12:49:46;;;;;;;12.45;6.97;;;32.90;62.90;;;;;;6216687;23;20000;-78
2023/10/11 12:52:17;;;;;;;13.35;7.53;;;32.80;62.70;;;;;;6215031;23;20028;-79
2023/10/11 12:54:43;;;;;;;15.40;7.82;;;32.70;62.80;;;;;;6188453;23;20004;-81
2023/10/11 12:57:15;;;;;;;13.75;7.85;;;32.50;62.70;;;;;;6216789;23;20012;-79
2023/10/11 12:59:41;;;;;;;12.75;7.93;;;32.20;63.30;;;;;;6220669;23;20441;-78
2023/10/11 13:02:09;;;;;;;14.10;7.30;;;31.90;63.90;;;;;;6218167;23;20004;-82
2023/10/11 13:04:37;;;;;;;13.00;8.13;;;31.70;64.70;;;;;;6215397;23;20011;-79
2023/10/11 13:07:10;;;;;;;13.60;7.25;;;31.30;65.10;;;;;;6188040;23;20472;-79
2023/10/11 13:09:36;;;;;;;13.27;7.13;;;31.00;65.60;;;;;;6211278;23;20004;-79
2023/10/11 13:12:05;;;;;;;11.85;6.82;;;30.80;66.50;;;;;;6213967;23;20054;-83
2023/10/11 13:14:33;;;;;;;10.90;7.35;;;30.50;67.00;;;;;;6214857;23;20001;-84
2023/10/11 13:17:00;;;;;;;14.93;7.35;;;30.30;67.40;;;;;;6188926;23;20004;-84
2023/10/11 13:19:26;;;;;;;11.07;7.43;;;30.00;67.50;;;;;;6189505;23;20043;-83
2023/10/11 13:21:55;;;;;;;13.27;7.80;;;29.80;67.80;;;;;;6216044;23;20307;-84
2023/10/11 13:24:23;;;;;;;17.30;8.07;;;29.60;68.50;;;;;;6189557;23;20011;-82
2023/10/11 13:26:54;;;;;;;16.88;7.45;;;29.50;68.90;;;;;;6215597;23;20023;-78
2023/10/11 13:29:21;;;;;;;13.95;7.78;;;29.40;69.40;;;;;;6216180;23;19996;-78
2023/10/11 13:31:57;;;;;;;15.43;7.65;;;29.30;69.40;;;;;;6188413;23;20007;-77
2023/10/11 13:34:30;;;;;;;13.95;7.35;;;29.10;69.70;;;;;;6190031;23;20663;-79
2023/10/11 13:37:00;;;;;;;11.20;7.50;;;29.00;70.00;;;;;;6215184;23;20021;-78
2023/10/11 13:39:26;;;;;;;14.93;7.60;;;28.90;70.20;;;;;;6191315;23;20005;-82
2023/10/11 13:41:56;;;;;;;12.70;7.50;;;28.80;70.50;;;;;;6216533;23;19996;-84
2023/10/11 13:44:23;;;;;;;11.10;7.70;;;28.80;70.60;;;;;;6216578;23;20050;-83
2023/10/11 13:46:52;;;;;;;13.88;7.55;;;28.70;70.60;;;;;;6188985;23;20004;-83
2023/10/11 13:49:26;;;;;;;11.52;7.05;;;28.60;70.80;;;;;;6188982;23;20084;-82
2023/10/11 13:52:01;;;;;;;16.88;7.13;;;28.60;71.20;;;;;;6214724;23;20095;-82
2023/10/11 13:54:37;;;;;;;11.73;6.63;;;28.50;70.70;;;;;;6189493;23;20011;-88
2023/10/11 13:57:18;;;;;;;20.80;6.63;;;28.50;70.70;;;;;;6213525;23;20095;-78
2023/10/11 13:59:45;;;;;;;19.23;6.80;;;28.40;70.90;;;;;;6187198;23;20013;-78
2023/10/11 14:07:32;;;;;;;15.55;6.88;;;28.20;71.30;;;;;;6215645;23;20016;-78
2023/10/11 14:09:58;;;;;;;14.07;7.65;;;28.10;71.50;;;;;;6214850;23;20326;-78
2023/10/11 14:12:37;;;;;;;12.80;7.60;;;28.10;71.80;;;;;;6215441;23;20003;-78
2023/10/11 14:15:08;;;;;;;14.75;7.22;;;28.00;71.70;;;;;;6214950;23;20000;-78
2023/10/11 14:17:38;;;;;;;16.38;7.90;;;28.00;72.20;;;;;;6188852;23;20425;-82
2023/10/11 14:20:05;;;;;;;16.23;8.00;;;27.90;71.90;;;;;;6215866;23;20009;-83
2023/10/11 14:22:32;;;;;;;14.00;6.90;;;27.90;71.50;;;;;;6215748;23;20005;-83
2023/10/11 14:24:59;;;;;;;11.70;7.03;;;27.80;71.60;;;;;;6216210;23;20403;-82
2023/10/11 14:27:25;;;;;;;14.48;6.90;;;27.80;71.70;;;;;;6216536;23;20477;-83
2023/10/11 14:29:51;;;;;;;15.00;6.93;;;27.70;71.90;;;;;;6215310;23;20466;-83
2023/10/11 14:32:17;;;;;;;10.40;6.88;;;27.70;71.90;;;;;;6187008;23;20088;-84
2023/10/11 14:34:45;;;;;;;10.15;6.63;;;27.60;72.10;;;;;;6214121;23;20072;-84
2023/10/11 14:37:14;;;;;;;14.93;6.95;;;27.60;72.20;;;;;;6214459;23;20069;-84